.
WxDataArchive / Data Records for 2010-07-12
2010-07-11 July 2010 2010-07-13

Data Records for Monday, 12 July 2010

Time	Temp	Chill	HIndex	Humid	Dewpt	 Wind 	HiWind	WindDir	Rain 	Barom 
-----	----	-----	------	-----	-----	------	------	-------	-----	----- 
00:00	76.5	76.5	78.2	69	65.6	0	0	---	0.00	29.745 
00:05	76.3	76.3	78.0	69	65.4	0	0	---	0.00	29.745 
00:10	76.3	76.3	78.0	68	64.9	0	0	---	0.00	29.745 
00:15	76.1	76.1	77.8	68	64.8	0	0	---	0.00	29.746 
00:20	76.1	76.1	77.8	69	65.2	0	0	---	0.00	29.746 
00:25	76.0	76.0	77.6	71	65.9	0	1	225	0.00	29.746 
00:30	76.0	76.0	77.5	72	66.3	0	0	---	0.00	29.738 
00:35	75.8	75.8	77.3	72	66.1	0	1	225	0.00	29.738 
00:40	75.8	75.8	77.3	73	66.5	0	1	225	0.00	29.738 
00:45	75.6	75.6	77.0	73	66.3	0	0	---	0.00	29.733 
00:50	75.4	75.4	76.8	73	66.1	0	0	---	0.00	29.733 
00:55	75.3	75.3	76.6	74	66.4	0	0	---	0.00	29.733 
01:00	75.1	75.1	76.3	75	66.6	0	0	---	0.00	29.732 
01:05	74.9	74.9	74.9	76	66.8	0	0	---	0.00	29.732 
01:10	74.6	74.6	74.6	77	66.9	0	0	---	0.00	29.732 
01:15	74.4	74.4	74.4	77	66.7	0	0	---	0.00	29.729 
01:20	74.0	74.0	74.0	78	66.7	0	0	---	0.00	29.729 
01:25	73.9	73.9	73.9	77	66.2	0	0	---	0.00	29.729 
01:30	73.9	73.9	73.9	78	66.6	0	0	---	0.00	29.732 
01:35	73.7	73.7	73.7	78	66.4	0	0	---	0.00	29.732 
01:40	73.5	73.5	73.5	78	66.2	0	0	---	0.00	29.732 
01:45	73.3	73.3	73.3	79	66.4	0	0	---	0.00	29.723 
01:50	73.2	73.2	73.2	80	66.6	0	0	---	0.00	29.723 
01:55	73.0	73.0	73.0	80	66.5	0	0	---	0.00	29.723 
02:00	72.8	72.8	72.8	80	66.3	0	0	---	0.00	29.718 
02:05	72.7	72.7	72.7	81	66.5	0	0	---	0.00	29.718 
02:10	72.5	72.5	72.5	81	66.3	0	0	---	0.00	29.718 
02:15	72.3	72.3	72.3	82	66.5	0	0	---	0.00	29.720 
02:20	72.1	72.1	72.1	82	66.3	0	0	---	0.00	29.720 
02:25	72.1	72.1	72.1	82	66.3	0	0	---	0.00	29.720 
02:30	72.1	72.1	72.1	83	66.6	0	0	---	0.00	29.720 
02:35	72.0	72.0	72.0	83	66.5	0	0	---	0.00	29.720 
02:40	72.0	72.0	72.0	83	66.5	0	0	---	0.00	29.720 
02:45	72.0	72.0	72.0	83	66.5	0	0	---	0.00	29.720 
02:50	71.8	71.8	71.8	83	66.3	0	0	---	0.00	29.720 
02:55	71.8	71.8	71.8	83	66.3	0	0	---	0.00	29.720 
03:00	71.8	71.8	71.8	83	66.3	0	0	---	0.00	29.720 
03:05	71.8	71.8	71.8	82	66.0	0	0	---	0.00	29.720 
03:10	71.8	71.8	71.8	81	65.6	0	0	---	0.00	29.720 
03:15	72.0	72.0	72.0	80	65.5	0	0	---	0.00	29.719 
03:20	72.1	72.1	72.1	79	65.2	0	1	225	0.00	29.719 
03:25	72.7	72.7	72.7	77	65.1	0	1	225	0.00	29.719 
03:30	73.0	73.0	73.0	77	65.3	0	1	225	0.00	29.720 
03:35	73.3	73.3	73.3	76	65.3	0	1	225	0.00	29.720 
03:40	73.3	73.3	73.3	77	65.6	0	1	225	0.00	29.720 
03:45	73.3	73.3	73.3	77	65.6	0	0	---	0.00	29.718 
03:50	73.3	73.3	73.3	77	65.6	0	0	---	0.00	29.718 
03:55	73.2	73.2	73.2	77	65.5	0	1	225	0.00	29.718 
04:00	73.0	73.0	73.0	78	65.7	0	0	---	0.00	29.714 
04:05	72.8	72.8	72.8	78	65.5	0	0	---	0.00	29.714 
04:10	72.7	72.7	72.7	78	65.4	0	0	---	0.00	29.714 
04:15	72.5	72.5	72.5	78	65.2	0	0	---	0.00	29.709 
04:20	72.5	72.5	72.5	78	65.2	0	0	---	0.00	29.709 
04:25	72.3	72.3	72.3	79	65.4	0	0	---	0.00	29.709 
04:30	72.3	72.3	72.3	79	65.4	0	0	---	0.00	29.705 
04:35	72.1	72.1	72.1	80	65.6	0	0	---	0.00	29.705 
04:40	72.1	72.1	72.1	80	65.6	0	1	225	0.00	29.705 
04:45	72.1	72.1	72.1	81	65.9	0	1	225	0.00	29.703 
04:50	72.1	72.1	72.1	81	65.9	0	0	---	0.00	29.703 
04:55	72.0	72.0	72.0	81	65.8	0	0	---	0.00	29.703 
05:00	72.0	72.0	72.0	81	65.8	0	0	---	0.00	29.697 
05:05	71.8	71.8	71.8	81	65.6	0	0	---	0.00	29.697 
05:10	71.8	71.8	71.8	81	65.6	0	0	---	0.00	29.697 
05:15	71.6	71.6	71.6	81	65.4	0	0	---	0.00	29.690 
05:20	71.3	71.3	71.3	82	65.5	0	0	---	0.00	29.690 
05:25	71.1	71.1	71.1	82	65.3	0	0	---	0.00	29.690 
05:30	70.9	70.9	70.9	83	65.5	0	1	225	0.00	29.690 
05:35	70.6	70.6	70.6	83	65.2	0	0	---	0.00	29.690 
05:40	70.4	70.4	70.4	84	65.3	0	0	---	0.00	29.690 
05:45	70.3	70.3	70.3	84	65.2	0	0	---	0.00	29.692 
05:50	70.3	70.3	70.3	84	65.2	0	0	---	0.00	29.692 
05:55	69.9	69.9	69.9	84	64.8	0	0	---	0.00	29.692 
06:00	69.8	69.8	69.8	85	65.1	0	0	---	0.00	29.691 
06:05	69.4	69.4	69.4	85	64.7	0	0	---	0.00	29.691 
06:10	69.3	69.3	69.3	86	64.9	0	0	---	0.00	29.691 
06:15	69.1	69.1	69.1	86	64.7	0	0	---	0.00	29.704 
06:20	68.8	68.8	68.8	87	64.8	0	0	---	0.00	29.704 
06:25	68.6	68.6	68.6	87	64.6	0	0	---	0.00	29.704 
06:30	68.4	68.4	68.4	88	64.7	0	0	---	0.00	29.709 
06:35	68.4	68.4	68.4	88	64.7	0	0	---	0.00	29.709 
06:40	68.3	68.3	68.3	88	64.6	0	0	---	0.00	29.709 
06:45	68.3	68.3	68.3	88	64.6	0	0	---	0.00	29.709 
06:50	68.3	68.3	68.3	88	64.6	0	0	---	0.00	29.709 
06:55	68.3	68.3	68.3	88	64.6	0	1	270	0.00	29.709 
07:00	68.4	68.4	68.4	88	64.7	0	0	---	0.00	29.710 
07:05	68.4	68.4	68.4	88	64.7	0	0	---	0.00	29.710 
07:10	68.4	68.4	68.4	88	64.7	0	0	---	0.00	29.710 
07:15	68.6	68.6	68.6	88	64.9	0	1	270	0.00	29.711 
07:20	68.9	68.9	68.9	88	65.2	0	1	270	0.00	29.711 
07:25	69.1	69.1	69.1	88	65.4	0	1	270	0.00	29.711 
07:30	69.6	69.6	69.6	87	65.6	0	1	270	0.00	29.712 
07:35	69.9	69.9	69.9	86	65.5	1	3	112	0.00	29.712 
07:40	70.1	70.1	70.1	86	65.7	0	2	112	0.00	29.712 
07:45	70.4	70.4	70.4	85	65.7	0	2	112	0.00	29.714 
07:50	70.4	70.4	70.4	85	65.7	0	1	112	0.00	29.714 
07:55	70.8	70.8	70.8	85	66.1	0	1	112	0.00	29.714 
08:00	71.5	71.5	71.5	84	66.4	0	2	112	0.00	29.714 
08:05	72.1	72.1	72.1	82	66.3	0	1	112	0.00	29.714 
08:10	72.5	72.5	72.5	81	66.3	0	1	112	0.00	29.714 
08:15	72.7	72.7	72.7	81	66.5	0	2	112	0.00	29.717 
08:20	72.7	72.7	72.7	80	66.2	1	3	112	0.00	29.717 
08:25	72.8	72.8	72.8	80	66.3	0	1	112	0.00	29.717 
08:30	73.0	73.0	73.0	79	66.1	0	1	112	0.00	29.722 
08:35	73.3	73.3	73.3	78	66.0	0	4	90	0.00	29.722 
08:40	73.9	73.9	73.9	78	66.6	1	3	90	0.00	29.722 
08:45	74.0	74.0	74.0	77	66.3	1	3	112	0.00	29.720 
08:50	74.0	74.0	74.0	77	66.3	1	4	315	0.00	29.720 
08:55	74.0	74.0	74.0	77	66.3	1	3	135	0.00	29.720 
09:00	74.2	74.2	74.2	77	66.5	0	3	112	0.00	29.715 
09:05	74.2	74.2	74.2	76	66.1	1	4	270	0.00	29.715 
09:10	74.4	74.4	74.4	77	66.7	0	3	270	0.00	29.715 
09:15	74.6	74.6	74.6	76	66.5	1	3	68	0.00	29.711 
09:20	74.7	74.7	74.7	76	66.6	0	1	0	0.00	29.711 
09:25	74.6	74.6	74.6	76	66.5	0	2	0	0.00	29.711 
09:30	74.6	74.6	74.6	77	66.9	1	3	0	0.00	29.716 
09:35	74.7	74.7	74.7	77	67.0	0	2	248	0.00	29.716 
09:40	75.3	75.3	76.3	77	67.6	1	3	248	0.00	29.716 
09:45	75.4	75.4	76.7	74	66.5	0	2	225	0.00	29.716 
09:50	75.3	75.3	76.5	75	66.8	0	2	248	0.00	29.716 
09:55	75.3	75.3	76.4	76	67.2	0	2	248	0.00	29.716 
10:00	75.3	75.3	76.5	75	66.8	1	2	248	0.00	29.721 
10:05	75.3	75.3	76.5	75	66.8	0	3	248	0.00	29.721 
10:10	75.3	75.3	76.5	75	66.8	0	1	248	0.00	29.721 
10:15	75.3	75.3	76.5	75	66.8	1	3	248	0.00	29.724 
10:20	75.4	75.4	76.6	75	66.9	0	1	248	0.00	29.724 
10:25	75.8	75.8	77.1	75	67.3	0	3	248	0.00	29.724 
10:30	76.0	76.0	77.5	73	66.7	1	3	248	0.00	29.728 
10:35	76.1	76.1	77.5	74	67.2	1	3	270	0.00	29.728 
10:40	76.5	76.5	78.1	74	67.6	0	0	---	0.00	29.728 
10:45	76.8	76.8	78.5	73	67.5	1	3	270	0.00	29.733 
10:50	76.8	76.8	78.5	71	66.7	1	3	270	0.00	29.733 
10:55	77.2	77.2	79.0	72	67.5	1	3	270	0.00	29.733 
11:00	77.6	77.6	79.5	72	67.8	1	3	270	0.00	29.733 
11:05	77.9	77.9	79.9	71	67.7	0	2	270	0.00	29.733 
11:10	77.7	77.7	79.6	70	67.1	1	3	270	0.00	29.733 
11:15	77.6	77.6	79.5	72	67.8	0	2	270	0.00	29.730 
11:20	77.9	77.9	79.9	70	67.3	1	4	315	0.00	29.730 
11:25	77.9	77.9	79.9	69	66.9	1	4	315	0.00	29.730 
11:30	77.7	77.7	79.6	70	67.1	1	3	315	0.00	29.738 
11:35	78.1	78.1	80.2	71	67.9	1	3	315	0.00	29.738 
11:40	78.5	78.5	80.7	69	67.5	1	4	270	0.00	29.738 
11:45	78.3	78.3	80.4	69	67.3	1	4	270	0.00	29.738 
11:50	78.8	78.8	81.1	69	67.7	0	2	315	0.00	29.738 
11:55	79.4	79.4	81.7	67	67.5	1	3	315	0.00	29.738 
12:00	79.6	79.6	81.9	66	67.2	0	2	315	0.00	29.736 
12:05	79.9	79.9	82.0	63	66.2	1	3	315	0.00	29.736 
12:10	80.9	80.9	83.4	63	67.1	0	2	0	0.00	29.736 
12:15	81.8	81.8	84.5	62	67.5	0	3	0	0.00	29.737 
12:20	82.0	82.0	84.2	59	66.2	1	3	0	0.00	29.737 
12:25	81.2	81.2	83.3	60	66.0	0	1	315	0.00	29.737 
12:30	80.9	80.9	83.1	61	66.2	0	1	315	0.00	29.734 
12:35	80.7	80.7	82.8	61	66.0	0	1	315	0.00	29.734 
12:40	79.9	79.9	81.8	61	65.2	0	2	315	0.00	29.734 
12:45	79.6	79.6	81.6	63	65.9	0	1	315	0.00	29.734 
12:50	79.9	79.9	82.0	63	66.2	0	2	315	0.00	29.734 
12:55	80.5	80.5	82.5	61	65.8	1	3	248	0.00	29.734 
13:00	80.9	80.9	83.1	61	66.2	0	2	248	0.00	29.728 
13:05	80.7	80.7	82.7	60	65.5	1	3	270	0.00	29.728 
13:10	81.1	81.1	83.8	64	67.7	0	3	270	0.00	29.728 
13:15	81.8	81.8	84.1	60	66.5	0	3	270	0.00	29.729 
13:20	82.6	82.6	84.7	57	65.8	1	4	270	0.00	29.729 
13:25	81.8	81.8	83.8	58	65.6	1	4	292	0.00	29.729 
13:30	81.2	81.2	83.3	60	66.0	1	4	270	0.00	29.730 
13:35	81.1	81.1	83.2	60	65.9	1	3	270	0.00	29.730 
13:40	81.6	81.6	84.2	62	67.3	0	2	270	0.00	29.730 
13:45	82.6	82.6	84.5	56	65.3	1	4	270	0.00	29.723 
13:50	83.4	83.4	85.8	57	66.5	1	3	270	0.00	29.723 
13:55	84.0	84.0	85.6	52	64.4	1	3	270	0.00	29.723 
14:00	83.2	83.2	85.1	55	65.3	1	4	292	0.00	29.725 
14:05	83.0	83.0	85.1	56	65.7	1	4	292	0.00	29.725 
14:10	82.4	82.4	84.6	58	66.1	1	3	315	0.00	29.725 
14:15	81.8	81.8	83.8	58	65.6	1	4	315	0.00	29.724 
14:20	81.4	81.4	83.4	59	65.7	1	3	292	0.00	29.724 
14:25	81.4	81.4	83.4	59	65.7	1	2	315	0.00	29.724 
14:30	82.2	82.2	85.1	62	67.9	0	2	315	0.00	29.723 
14:35	82.8	82.8	85.0	57	66.0	1	4	270	0.00	29.723 
14:40	83.0	83.0	85.5	58	66.7	0	2	270	0.00	29.723 
14:45	83.6	83.6	86.1	57	66.7	1	3	270	0.00	29.724 
14:50	83.6	83.6	85.7	55	65.7	1	3	270	0.00	29.724 
14:55	83.0	83.0	85.1	56	65.7	1	4	270	0.00	29.724 
15:00	82.4	82.4	84.6	58	66.1	2	4	292	0.00	29.722 
15:05	83.0	83.0	85.3	57	66.2	1	5	292	0.00	29.722 
15:10	83.8	83.8	86.2	56	66.4	2	4	338	0.00	29.722 
15:15	84.0	84.0	86.0	54	65.5	1	3	270	0.00	29.716 
15:20	84.3	84.3	86.5	54	65.8	2	5	270	0.00	29.716 
15:25	84.1	84.1	85.9	53	65.1	1	4	292	0.00	29.716 
15:30	84.0	84.0	86.0	54	65.5	1	3	315	0.00	29.716 
15:35	84.5	84.5	86.3	52	64.9	2	5	315	0.00	29.716 
15:40	84.7	84.7	86.3	51	64.5	2	6	292	0.00	29.716 
15:45	84.9	84.9	86.8	52	65.3	2	3	315	0.00	29.715 
15:50	85.1	85.1	86.9	51	64.9	2	6	270	0.00	29.715 
15:55	84.9	84.9	86.6	51	64.7	1	4	292	0.00	29.715 
16:00	85.1	85.1	87.1	52	65.5	1	3	315	0.00	29.713 
16:05	85.1	85.1	86.9	51	64.9	2	3	315	0.00	29.713 
16:10	85.1	85.1	86.6	50	64.3	1	4	315	0.00	29.713 
16:15	84.7	84.7	86.0	50	64.0	1	4	270	0.00	29.718 
16:20	84.7	84.7	86.0	50	64.0	1	4	270	0.00	29.718 
16:25	84.5	84.5	85.8	50	63.8	2	5	292	0.00	29.718 
16:30	84.7	84.7	86.3	51	64.5	2	4	270	0.00	29.719 
16:35	85.3	85.3	86.9	50	64.5	1	3	270	0.00	29.719 
16:40	85.3	85.3	87.1	51	65.1	1	3	292	0.00	29.719 
16:45	85.5	85.5	87.2	50	64.7	2	4	292	0.00	29.714 
16:50	85.1	85.1	86.6	50	64.3	1	3	315	0.00	29.714 
16:55	85.1	85.1	86.6	50	64.3	1	3	315	0.00	29.714 
17:00	84.9	84.9	86.3	50	64.2	2	4	315	0.00	29.715 
17:05	84.3	84.3	86.0	52	64.7	2	5	270	0.00	29.715 
17:10	84.5	84.5	86.3	52	64.9	2	4	270	0.00	29.715 
17:15	84.9	84.9	86.8	52	65.3	2	4	270	0.00	29.714 
17:20	85.1	85.1	86.6	50	64.3	2	5	292	0.00	29.714 
17:25	85.1	85.1	86.6	50	64.3	1	2	292	0.00	29.714 
17:30	85.1	85.1	86.6	50	64.3	2	5	315	0.00	29.711 
17:35	85.3	85.3	87.1	51	65.1	2	4	292	0.00	29.711 
17:40	85.5	85.5	86.9	49	64.1	1	5	292	0.00	29.711 
17:45	85.1	85.1	86.6	50	64.3	2	5	292	0.00	29.707 
17:50	84.9	84.9	86.6	51	64.7	1	4	292	0.00	29.707 
17:55	84.7	84.7	86.5	52	65.1	1	3	292	0.00	29.707 
18:00	84.7	84.7	86.5	52	65.1	1	3	292	0.00	29.706 
18:05	84.5	84.5	85.8	50	63.8	1	3	292	0.00	29.706 
18:10	84.3	84.3	85.5	50	63.6	1	3	315	0.00	29.706 
18:15	84.3	84.3	85.7	51	64.2	1	3	315	0.00	29.707 
18:20	83.8	83.8	85.3	52	64.3	1	4	315	0.00	29.707 
18:25	84.0	84.0	85.6	52	64.4	1	3	315	0.00	29.707 
18:30	84.1	84.1	85.5	51	64.0	1	4	315	0.00	29.708 
18:35	84.1	84.1	85.7	52	64.5	1	3	270	0.00	29.708 
18:40	84.1	84.1	85.3	50	63.4	2	5	270	0.00	29.708 
18:45	84.1	84.1	85.5	51	64.0	2	4	270	0.00	29.709 
18:50	84.0	84.0	85.1	50	63.3	1	4	315	0.00	29.709 
18:55	84.0	84.0	84.9	49	62.8	1	4	270	0.00	29.709 
19:00	83.8	83.8	85.1	51	63.7	1	4	292	0.00	29.709 
19:05	84.0	84.0	84.9	49	62.8	1	4	292	0.00	29.709 
19:10	83.8	83.8	84.9	50	63.1	1	3	292	0.00	29.709 
19:15	83.8	83.8	85.1	51	63.7	1	2	315	0.00	29.708 
19:20	83.6	83.6	84.8	51	63.5	1	3	315	0.00	29.708 
19:25	83.4	83.4	84.4	50	62.8	1	2	315	0.00	29.708 
19:30	83.4	83.4	84.4	50	62.8	1	3	315	0.00	29.711 
19:35	83.4	83.4	84.2	49	62.2	1	3	270	0.00	29.711 
19:40	83.2	83.2	84.1	50	62.6	1	4	270	0.00	29.711 
19:45	83.2	83.2	84.1	50	62.6	1	3	270	0.00	29.719 
19:50	83.0	83.0	84.1	51	63.0	0	3	292	0.00	29.719 
19:55	82.8	82.8	84.2	53	63.9	0	2	292	0.00	29.719 
20:00	82.6	82.6	84.3	55	64.8	0	1	292	0.00	29.717 
20:05	82.2	82.2	83.8	55	64.4	0	2	292	0.00	29.717 
20:10	82.0	82.0	83.6	55	64.2	0	1	292	0.00	29.717 
20:15	81.8	81.8	83.5	56	64.5	0	1	292	0.00	29.723 
20:20	81.6	81.6	83.4	57	64.9	0	1	292	0.00	29.723 
20:25	81.4	81.4	83.1	57	64.7	0	1	292	0.00	29.723 
20:30	81.1	81.1	82.8	57	64.4	0	1	292	0.00	29.732 
20:35	80.9	80.9	82.7	58	64.7	0	1	292	0.00	29.732 
20:40	80.7	80.7	82.5	59	65.0	0	1	292	0.00	29.732 
20:45	80.5	80.5	82.4	60	65.3	0	1	292	0.00	29.738 
20:50	80.1	80.1	82.0	61	65.4	0	1	292	0.00	29.738 
20:55	79.9	79.9	81.8	61	65.2	0	1	292	0.00	29.738 
21:00	79.6	79.6	81.5	62	65.4	0	1	292	0.00	29.746 
21:05	79.4	79.4	81.3	62	65.2	0	1	292	0.00	29.746 
21:10	79.2	79.2	81.1	63	65.5	0	1	292	0.00	29.746 
21:15	79.0	79.0	81.0	64	65.8	0	0	---	0.00	29.753 
21:20	78.8	78.8	80.7	64	65.6	0	0	---	0.00	29.753 
21:25	78.6	78.6	80.6	65	65.8	0	0	---	0.00	29.753 
21:30	78.5	78.5	80.4	65	65.7	0	1	292	0.00	29.756 
21:35	78.3	78.3	80.2	65	65.5	0	1	292	0.00	29.756 
21:40	78.1	78.1	80.0	66	65.8	0	0	---	0.00	29.756 
21:45	77.9	77.9	79.8	66	65.6	0	1	292	0.00	29.767 
21:50	77.7	77.7	79.6	66	65.4	0	1	292	0.00	29.767 
21:55	77.7	77.7	79.6	67	65.8	0	0	---	0.00	29.767 
22:00	77.6	77.6	79.5	67	65.8	0	0	---	0.00	29.772 
22:05	77.2	77.2	79.0	68	65.8	0	0	---	0.00	29.772 
22:10	77.0	77.0	78.8	68	65.6	0	0	---	0.00	29.772 
22:15	76.8	76.8	78.6	69	65.8	0	0	---	0.00	29.778 
22:20	76.7	76.7	78.4	69	65.7	0	0	---	0.00	29.778 
22:25	76.5	76.5	78.2	70	66.0	0	0	---	0.00	29.778 
22:30	76.3	76.3	77.9	71	66.2	0	0	---	0.00	29.785 
22:35	76.0	76.0	77.6	71	65.9	0	0	---	0.00	29.785 
22:40	75.8	75.8	77.3	72	66.1	0	0	---	0.00	29.785 
22:45	75.6	75.6	77.1	72	65.9	0	0	---	0.00	29.784 
22:50	75.4	75.4	76.8	73	66.1	0	0	---	0.00	29.784 
22:55	75.1	75.1	76.4	74	66.2	0	0	---	0.00	29.784 
23:00	74.9	74.9	74.9	75	66.4	0	1	292	0.00	29.790 
23:05	74.9	74.9	74.9	75	66.4	0	1	292	0.00	29.790 
23:10	74.7	74.7	74.7	75	66.2	0	0	---	0.00	29.790 
23:15	74.7	74.7	74.7	75	66.2	0	0	---	0.00	29.785 
23:20	74.6	74.6	74.6	76	66.5	0	0	---	0.00	29.785 
23:25	74.4	74.4	74.4	76	66.3	0	0	---	0.00	29.785 
23:30	74.0	74.0	74.0	77	66.3	0	0	---	0.00	29.784 
23:35	73.9	73.9	73.9	77	66.2	0	0	---	0.00	29.784 
23:40	73.7	73.7	73.7	77	66.0	0	0	---	0.00	29.784 
23:45	73.5	73.5	73.5	78	66.2	0	0	---	0.00	29.786 
23:50	73.3	73.3	73.3	78	66.0	0	0	---	0.00	29.786 
23:55	73.2	73.2	73.2	79	66.3	0	0	---	0.00	29.786 

CoCoRaHS
IN-AL-39
A2 Web Hosting
Creative Commons License
GoDaddy
search engine by freefind advanced

loaded 2018-11-20 06:58:19 • last modified 2010-11-18 10:43:29
Privacy PolicyDisclaimer
• wx.awcolley.com is powered by PmWiki v.2002016 •
• all content (unless otherwise noted) © 2018 A W Colley